createdAt,value
2022-08-02T00:02:22.938Z,100.00
2022-08-02T00:06:27.522Z,100.00
2022-08-02T00:10:31.012Z,100.00
2022-08-02T00:14:34.382Z,100.00
2022-08-02T00:18:37.380Z,100.00
2022-08-02T00:22:41.814Z,100.00
2022-08-02T00:26:44.819Z,100.00
2022-08-02T00:30:47.912Z,100.00
2022-08-02T00:34:51.249Z,100.00
2022-08-02T00:38:55.607Z,100.00
2022-08-02T00:43:04.358Z,100.00
2022-08-02T00:47:07.527Z,100.00
2022-08-02T00:51:10.552Z,100.00
2022-08-02T00:55:17.446Z,100.00
2022-08-02T00:59:21.845Z,100.00
2022-08-02T01:03:25.029Z,100.00
2022-08-02T01:07:28.254Z,100.00
2022-08-02T01:11:33.139Z,100.00
2022-08-02T01:15:41.865Z,100.00
2022-08-02T01:19:52.963Z,100.00
2022-08-02T01:24:05.286Z,100.00
2022-08-02T01:28:27.851Z,100.00
2022-08-02T01:32:35.180Z,100.00
2022-08-02T01:36:42.793Z,100.00
2022-08-02T01:40:47.930Z,100.00
2022-08-02T01:44:54.408Z,100.00
2022-08-02T01:48:59.592Z,100.00
2022-08-02T01:53:08.183Z,100.00
2022-08-02T01:57:14.256Z,100.00
2022-08-02T02:01:24.807Z,100.00
2022-08-02T02:05:30.669Z,100.00
2022-08-02T02:09:50.197Z,100.00
2022-08-02T02:13:54.292Z,100.00
2022-08-02T02:18:12.529Z,100.00
2022-08-02T02:22:16.972Z,100.00
2022-08-02T02:26:29.803Z,100.00
2022-08-02T02:30:36.737Z,100.00
2022-08-02T02:34:44.992Z,100.00
2022-08-02T02:38:49.435Z,100.00
2022-08-02T02:42:53.337Z,100.00
2022-08-02T02:46:57.179Z,100.00
2022-08-02T02:56:55.758Z,100.00
2022-08-02T03:01:16.638Z,100.00
2022-08-02T03:05:19.717Z,100.00
2022-08-02T03:09:22.782Z,100.00
2022-08-02T03:13:33.264Z,100.00
2022-08-02T03:17:45.433Z,100.00
2022-08-02T03:21:57.393Z,100.00
2022-08-02T03:26:01.340Z,100.00
2022-08-02T03:30:08.547Z,100.00
2022-08-02T03:34:11.746Z,100.00
2022-08-02T03:38:17.146Z,100.00
2022-08-02T03:42:20.885Z,100.00
2022-08-02T03:46:26.213Z,100.00
2022-08-02T03:50:29.539Z,100.00
2022-08-02T03:54:33.016Z,100.00
2022-08-02T03:58:37.977Z,100.00
2022-08-02T04:02:42.855Z,100.00
2022-08-02T04:06:45.911Z,100.00
2022-08-02T04:11:06.921Z,100.00
2022-08-02T04:15:12.183Z,100.00
2022-08-02T04:19:23.073Z,100.00
2022-08-02T04:23:28.223Z,100.00
2022-08-02T04:27:50.478Z,100.00
2022-08-02T04:32:00.595Z,100.00
2022-08-02T04:36:07.100Z,100.00
2022-08-02T04:40:11.833Z,100.00
2022-08-02T04:44:15.822Z,100.00
2022-08-02T04:48:22.348Z,100.00
2022-08-02T04:52:27.488Z,100.00
2022-08-02T04:56:31.359Z,100.00
2022-08-02T05:00:35.377Z,100.00
2022-08-02T05:04:39.008Z,100.00
2022-08-02T05:08:43.855Z,100.00
2022-08-02T05:12:46.971Z,100.00
2022-08-02T05:16:50.284Z,100.00
2022-08-02T05:20:58.038Z,100.00
2022-08-02T05:25:02.659Z,100.00
2022-08-02T05:29:06.272Z,100.00
2022-08-02T05:33:09.526Z,100.00
2022-08-02T05:37:12.728Z,100.00
2022-08-02T05:41:18.174Z,100.00
2022-08-02T05:45:21.186Z,100.00
2022-08-02T05:49:24.416Z,100.00
2022-08-02T05:53:36.786Z,100.00
2022-08-02T05:57:48.857Z,100.00
2022-08-02T06:01:57.683Z,100.00
2022-08-02T06:06:06.459Z,100.00
2022-08-02T06:10:13.326Z,100.00
2022-08-02T06:14:18.190Z,100.00
2022-08-02T06:18:27.800Z,100.00
2022-08-02T06:22:36.914Z,100.00
2022-08-02T06:26:44.123Z,100.00
2022-08-02T06:30:48.704Z,100.00
2022-08-02T06:34:51.775Z,100.00
2022-08-02T06:39:00.549Z,100.00
2022-08-02T06:43:14.179Z,100.00
2022-08-02T06:47:18.639Z,100.00
2022-08-02T06:51:22.068Z,100.00
2022-08-02T06:55:25.127Z,100.00
2022-08-02T06:59:28.194Z,100.00
2022-08-02T07:03:32.553Z,100.00
2022-08-02T07:07:36.081Z,100.00
2022-08-02T07:11:39.178Z,100.00
2022-08-02T07:15:45.753Z,100.00
2022-08-02T07:19:53.666Z,100.00
2022-08-02T07:23:56.675Z,100.00
2022-08-02T07:27:59.771Z,100.00
2022-08-02T07:32:04.416Z,100.00
2022-08-02T07:36:21.584Z,100.00
2022-08-02T07:40:27.056Z,100.00
2022-08-02T07:44:34.727Z,100.00
2022-08-02T07:48:37.767Z,100.00
2022-08-02T07:52:43.214Z,100.00
2022-08-02T07:56:46.276Z,100.00
2022-08-02T08:00:53.825Z,100.00
2022-08-02T08:04:56.858Z,100.00
2022-08-02T08:09:01.273Z,100.00
2022-08-02T08:13:04.383Z,100.00
2022-08-02T08:17:08.506Z,100.00
2022-08-02T08:21:11.930Z,100.00
2022-08-02T08:25:17.035Z,100.00
2022-08-02T08:29:20.509Z,100.00
2022-08-02T08:33:23.543Z,100.00
2022-08-02T08:37:27.419Z,100.00
2022-08-02T08:41:31.817Z,100.00
2022-08-02T08:45:34.950Z,100.00
2022-08-02T08:49:52.529Z,100.00
2022-08-02T08:54:00.300Z,100.00
2022-08-02T08:58:06.384Z,100.00
2022-08-02T09:02:17.233Z,100.00
2022-08-02T09:06:24.898Z,100.00
2022-08-02T09:10:40.094Z,100.00
2022-08-02T09:14:44.565Z,100.00
2022-08-02T09:18:47.771Z,100.00
2022-08-02T09:23:07.507Z,100.00
2022-08-02T09:27:14.941Z,100.00
2022-08-02T09:31:21.219Z,100.00
2022-08-02T09:36:06.717Z,100.00
2022-08-02T09:40:00.711Z,100.00
2022-08-02T09:44:06.707Z,100.00
2022-08-02T09:48:11.765Z,100.00
2022-08-02T09:52:15.593Z,100.00
2022-08-02T09:56:29.589Z,100.00
2022-08-02T10:00:53.601Z,100.00
2022-08-02T10:04:58.082Z,100.00
2022-08-02T10:09:01.206Z,100.00
2022-08-02T10:13:04.485Z,100.00
2022-08-02T10:17:08.809Z,99.55
2022-08-02T10:21:16.497Z,96.65
2022-08-02T10:25:21.514Z,99.16
2022-08-02T10:29:31.025Z,98.21
2022-08-02T10:33:56.905Z,99.44
2022-08-02T10:38:03.616Z,97.23
2022-08-02T10:42:06.957Z,95.10
2022-08-02T10:46:24.653Z,100.00
2022-08-02T10:50:56.133Z,99.77
2022-08-02T10:55:01.648Z,95.00
2022-08-02T10:59:26.706Z,95.50
2022-08-02T11:03:41.279Z,89.71
2022-08-02T11:07:47.517Z,93.13
2022-08-02T11:12:04.398Z,94.20
2022-08-02T11:16:11.611Z,93.70
2022-08-02T11:20:17.942Z,87.12
2022-08-02T11:24:30.039Z,88.66
2022-08-02T11:28:34.484Z,83.00
2022-08-02T11:32:37.735Z,84.93
2022-08-02T11:36:49.012Z,84.25
2022-08-02T11:40:57.234Z,86.44
2022-08-02T11:45:02.125Z,89.62
2022-08-02T11:49:16.295Z,98.00
2022-08-02T11:53:19.339Z,93.13
2022-08-02T11:57:23.608Z,91.59
2022-08-02T12:01:27.997Z,84.51
2022-08-02T12:06:05.228Z,85.16
2022-08-02T12:10:00.039Z,83.76
2022-08-02T12:14:03.821Z,79.92
2022-08-02T12:20:53.526Z,78.09
2022-08-02T12:24:57.922Z,80.47
2022-08-02T12:29:01.624Z,84.79
2022-08-02T12:33:13.320Z,86.24
2022-08-02T12:37:26.778Z,82.45
2022-08-02T12:41:32.628Z,78.83
2022-08-02T12:45:49.108Z,80.80
2022-08-02T12:50:13.445Z,72.17
2022-08-02T12:54:21.004Z,71.94
2022-08-02T12:58:50.045Z,68.20
2022-08-02T13:02:53.571Z,72.78
2022-08-02T13:06:56.622Z,64.11
2022-08-02T13:11:01.012Z,66.65
2022-08-02T13:15:04.616Z,68.93
2022-08-02T13:19:16.316Z,60.84
2022-08-02T13:23:21.872Z,63.65
2022-08-02T13:27:27.484Z,58.56
2022-08-02T13:31:36.532Z,65.60
2022-08-02T13:35:39.960Z,63.87
2022-08-02T13:39:55.364Z,65.43
2022-08-02T13:44:10.771Z,62.77
2022-08-02T13:48:17.120Z,59.25
2022-08-02T13:52:21.703Z,58.14
2022-08-02T13:56:36.079Z,65.69
2022-08-02T14:00:40.912Z,60.09
2022-08-02T14:04:46.815Z,58.25
2022-08-02T14:08:49.934Z,62.17
2022-08-02T14:12:56.322Z,60.95
2022-08-02T14:17:01.970Z,59.36
2022-08-02T14:21:05.349Z,58.86
2022-08-02T14:25:09.580Z,58.16
2022-08-02T14:29:13.052Z,60.93
2022-08-02T14:33:18.978Z,57.84
2022-08-02T14:37:22.053Z,58.38
2022-08-02T14:41:25.266Z,60.06
2022-08-02T14:45:39.808Z,55.37
2022-08-02T14:49:49.577Z,55.36
2022-08-02T14:54:02.702Z,62.35
2022-08-02T14:58:06.557Z,57.54
2022-08-02T15:02:10.679Z,57.69
2022-08-02T15:06:18.122Z,56.11
2022-08-02T15:10:22.341Z,58.45
2022-08-02T15:14:26.359Z,57.03
2022-08-02T15:18:29.721Z,56.69
2022-08-02T15:22:34.569Z,56.80
2022-08-02T15:26:37.935Z,55.56
2022-08-02T15:30:41.119Z,56.76
2022-08-02T15:34:44.286Z,55.11
2022-08-02T15:38:48.758Z,50.89
2022-08-02T15:42:53.688Z,51.99
2022-08-02T15:46:56.828Z,50.31
2022-08-02T15:51:00.266Z,53.52
2022-08-02T15:55:06.913Z,53.38
2022-08-02T15:59:10.606Z,51.09
2022-08-02T16:03:13.725Z,52.87
2022-08-02T16:07:16.803Z,54.88
2022-08-02T16:11:21.277Z,57.26
2022-08-02T16:15:24.355Z,55.95
2022-08-02T16:19:46.729Z,52.32
2022-08-02T16:24:02.022Z,52.53
2022-08-02T16:28:08.209Z,55.14
2022-08-02T16:32:12.317Z,54.62
2022-08-02T16:36:16.050Z,53.31
2022-08-02T16:40:23.302Z,54.90
2022-08-02T16:44:30.225Z,55.24
2022-08-02T16:48:33.866Z,55.25
2022-08-02T16:52:37.183Z,54.58
2022-08-02T16:56:42.579Z,58.52
2022-08-02T17:00:47.841Z,60.13
2022-08-02T17:04:51.083Z,59.46
2022-08-02T17:08:55.536Z,59.44
2022-08-02T17:13:11.454Z,60.95
2022-08-02T17:17:16.818Z,61.63
2022-08-02T17:21:24.484Z,63.73
2022-08-02T17:25:27.612Z,62.14
2022-08-02T17:29:35.041Z,65.95
2022-08-02T17:33:39.689Z,65.65
2022-08-02T17:37:42.936Z,63.77
2022-08-02T17:41:58.056Z,62.64
2022-08-02T17:46:02.590Z,65.88
2022-08-02T17:50:09.288Z,66.62
2022-08-02T17:54:20.556Z,68.92
2022-08-02T17:58:24.655Z,72.30
2022-08-02T18:02:37.883Z,73.98
2022-08-02T18:06:47.160Z,74.71
2022-08-02T18:10:50.782Z,72.04
2022-08-02T18:14:55.551Z,75.59
2022-08-02T18:18:58.684Z,78.14
2022-08-02T18:23:11.079Z,77.47
2022-08-02T18:27:16.860Z,81.25
2022-08-02T18:31:22.799Z,82.34
2022-08-02T18:35:26.306Z,83.13
2022-08-02T18:39:34.262Z,84.01
2022-08-02T18:43:43.684Z,86.36
2022-08-02T18:47:50.861Z,86.62
2022-08-02T18:51:54.261Z,88.06
2022-08-02T18:56:00.297Z,90.31
2022-08-02T19:00:10.096Z,92.83
2022-08-02T19:04:26.784Z,95.25
2022-08-02T19:08:30.991Z,97.37
2022-08-02T19:12:36.534Z,100.00
2022-08-02T19:16:40.004Z,100.00
2022-08-02T19:20:48.018Z,100.00
2022-08-02T19:24:56.463Z,100.00
2022-08-02T19:29:08.511Z,100.00
2022-08-02T19:33:25.025Z,100.00
2022-08-02T19:37:38.679Z,100.00
2022-08-02T19:41:43.805Z,100.00
2022-08-02T19:45:50.189Z,100.00
2022-08-02T19:49:54.415Z,100.00
2022-08-02T19:53:58.593Z,100.00
2022-08-02T19:58:04.460Z,100.00
2022-08-02T20:02:08.870Z,100.00
2022-08-02T20:06:14.624Z,100.00
2022-08-02T20:10:24.830Z,100.00
2022-08-02T20:14:28.120Z,100.00
2022-08-02T20:18:33.750Z,100.00
2022-08-02T20:22:58.579Z,100.00
2022-08-02T20:27:02.672Z,100.00
2022-08-02T20:31:08.818Z,100.00
2022-08-02T20:35:13.518Z,100.00
2022-08-02T20:39:21.992Z,100.00
2022-08-02T20:43:31.136Z,100.00
2022-08-02T20:47:39.251Z,100.00
2022-08-02T20:51:44.695Z,100.00
2022-08-02T20:55:49.661Z,100.00
2022-08-02T20:59:52.601Z,100.00
2022-08-02T21:08:21.822Z,100.00
2022-08-02T21:12:29.766Z,100.00
2022-08-02T21:16:33.331Z,100.00
2022-08-02T21:20:37.202Z,100.00
2022-08-02T21:24:41.558Z,100.00
2022-08-02T21:28:45.197Z,100.00
2022-08-02T21:32:50.659Z,100.00
2022-08-02T21:36:54.791Z,100.00
2022-08-02T21:40:59.243Z,100.00
2022-08-02T21:45:02.236Z,100.00
2022-08-02T21:49:41.195Z,100.00
2022-08-02T21:58:09.507Z,100.00
2022-08-02T22:02:13.399Z,100.00
2022-08-02T22:06:16.802Z,100.00
2022-08-02T22:10:21.647Z,100.00
2022-08-02T22:14:26.093Z,100.00
2022-08-02T22:18:31.252Z,100.00
2022-08-02T22:22:36.727Z,100.00
2022-08-02T22:26:41.004Z,100.00
2022-08-02T22:30:45.971Z,100.00
2022-08-02T22:34:55.739Z,100.00
2022-08-02T22:38:59.147Z,100.00
2022-08-02T22:43:02.168Z,100.00
2022-08-02T22:47:14.826Z,100.00
2022-08-02T22:51:18.622Z,100.00
2022-08-02T22:55:22.063Z,100.00
2022-08-02T22:59:03.801Z,100.00
2022-08-02T22:59:05.603Z,100.00
2022-08-02T22:59:36.407Z,100.00
2022-08-02T23:03:44.223Z,100.00
2022-08-02T23:07:47.185Z,100.00
2022-08-02T23:11:50.186Z,100.00
2022-08-02T23:16:10.632Z,100.00
2022-08-02T23:20:15.364Z,100.00
2022-08-02T23:24:18.770Z,100.00
2022-08-02T23:28:21.769Z,100.00
2022-08-02T23:32:25.908Z,100.00
2022-08-02T23:36:30.708Z,100.00
2022-08-02T23:40:40.223Z,100.00
2022-08-02T23:44:44.002Z,100.00
2022-08-02T23:48:47.087Z,100.00
2022-08-02T23:52:51.446Z,100.00
2022-08-02T23:56:54.665Z,100.00
